sensor_id;sensor_type;location;lat;lon;timestamp;P1;durP1;ratioP1;P2;durP2;ratioP2
63346;SDS011;49472;49.880;8.650;2024-02-26T00:00:18;15.77;;;14.87;;
63346;SDS011;49472;49.880;8.650;2024-02-26T00:02:44;15.20;;;14.40;;
63346;SDS011;49472;49.880;8.650;2024-02-26T00:05:09;15.37;;;14.37;;
63346;SDS011;49472;49.880;8.650;2024-02-26T00:07:34;15.93;;;15.03;;
63346;SDS011;49472;49.880;8.650;2024-02-26T00:09:59;16.10;;;15.10;;
63346;SDS011;49472;49.880;8.650;2024-02-26T00:12:25;15.50;;;14.60;;
63346;SDS011;49472;49.880;8.650;2024-02-26T00:14:50;14.37;;;13.67;;
63346;SDS011;49472;49.880;8.650;2024-02-26T00:17:15;15.50;;;14.60;;
63346;SDS011;49472;49.880;8.650;2024-02-26T00:19:41;15.70;;;14.70;;
63346;SDS011;49472;49.880;8.650;2024-02-26T00:22:06;16.00;;;15.10;;
63346;SDS011;49472;49.880;8.650;2024-02-26T00:24:31;15.10;;;14.20;;
63346;SDS011;49472;49.880;8.650;2024-02-26T00:26:56;14.97;;;14.20;;
63346;SDS011;49472;49.880;8.650;2024-02-26T00:29:21;15.20;;;14.40;;
63346;SDS011;49472;49.880;8.650;2024-02-26T00:31:47;15.80;;;14.40;;
63346;SDS011;49472;49.880;8.650;2024-02-26T00:34:12;15.60;;;14.60;;
63346;SDS011;49472;49.880;8.650;2024-02-26T00:36:37;15.63;;;14.53;;
63346;SDS011;49472;49.880;8.650;2024-02-26T00:39:02;14.83;;;14.03;;
63346;SDS011;49472;49.880;8.650;2024-02-26T00:41:28;15.33;;;14.43;;
63346;SDS011;49472;49.880;8.650;2024-02-26T00:43:53;15.70;;;14.70;;
63346;SDS011;49472;49.880;8.650;2024-02-26T00:46:19;14.87;;;14.07;;
63346;SDS011;49472;49.880;8.650;2024-02-26T00:48:44;15.23;;;14.30;;
63346;SDS011;49472;49.880;8.650;2024-02-26T00:51:09;15.40;;;14.30;;
63346;SDS011;49472;49.880;8.650;2024-02-26T00:53:34;15.77;;;14.67;;
63346;SDS011;49472;49.880;8.650;2024-02-26T00:55:59;15.60;;;14.60;;
63346;SDS011;49472;49.880;8.650;2024-02-26T00:58:25;15.30;;;14.50;;
63346;SDS011;49472;49.880;8.650;2024-02-26T01:00:50;15.90;;;14.40;;
63346;SDS011;49472;49.880;8.650;2024-02-26T01:03:16;15.13;;;14.33;;
63346;SDS011;49472;49.880;8.650;2024-02-26T01:05:42;15.63;;;14.63;;
63346;SDS011;49472;49.880;8.650;2024-02-26T01:08:07;15.10;;;14.30;;
63346;SDS011;49472;49.880;8.650;2024-02-26T01:10:33;15.30;;;14.50;;
63346;SDS011;49472;49.880;8.650;2024-02-26T01:12:59;15.37;;;14.47;;
63346;SDS011;49472;49.880;8.650;2024-02-26T01:15:24;14.80;;;13.87;;
63346;SDS011;49472;49.880;8.650;2024-02-26T01:17:50;15.83;;;14.80;;
63346;SDS011;49472;49.880;8.650;2024-02-26T01:20:15;16.30;;;15.20;;
63346;SDS011;49472;49.880;8.650;2024-02-26T01:22:41;16.67;;;15.40;;
63346;SDS011;49472;49.880;8.650;2024-02-26T01:25:07;15.33;;;14.43;;
63346;SDS011;49472;49.880;8.650;2024-02-26T01:27:32;15.50;;;14.60;;
63346;SDS011;49472;49.880;8.650;2024-02-26T01:29:58;15.67;;;14.77;;
63346;SDS011;49472;49.880;8.650;2024-02-26T01:32:23;15.33;;;14.53;;
63346;SDS011;49472;49.880;8.650;2024-02-26T01:34:48;15.70;;;14.73;;
63346;SDS011;49472;49.880;8.650;2024-02-26T01:37:13;15.93;;;14.47;;
63346;SDS011;49472;49.880;8.650;2024-02-26T01:39:39;15.47;;;14.57;;
63346;SDS011;49472;49.880;8.650;2024-02-26T01:42:06;15.00;;;14.20;;
63346;SDS011;49472;49.880;8.650;2024-02-26T01:44:31;15.80;;;14.80;;
63346;SDS011;49472;49.880;8.650;2024-02-26T01:46:57;15.80;;;14.83;;
63346;SDS011;49472;49.880;8.650;2024-02-26T01:49:22;15.10;;;14.30;;
63346;SDS011;49472;49.880;8.650;2024-02-26T01:51:47;15.60;;;14.53;;
63346;SDS011;49472;49.880;8.650;2024-02-26T01:54:12;15.63;;;14.63;;
63346;SDS011;49472;49.880;8.650;2024-02-26T01:56:38;15.50;;;14.53;;
63346;SDS011;49472;49.880;8.650;2024-02-26T01:59:04;15.87;;;14.67;;
63346;SDS011;49472;49.880;8.650;2024-02-26T02:01:30;15.70;;;14.50;;
63346;SDS011;49472;49.880;8.650;2024-02-26T02:03:56;15.17;;;14.30;;
63346;SDS011;49472;49.880;8.650;2024-02-26T02:06:23;15.20;;;14.30;;
63346;SDS011;49472;49.880;8.650;2024-02-26T02:08:48;15.77;;;14.77;;
63346;SDS011;49472;49.880;8.650;2024-02-26T02:11:13;15.13;;;14.23;;
63346;SDS011;49472;49.880;8.650;2024-02-26T02:13:40;15.97;;;14.80;;
63346;SDS011;49472;49.880;8.650;2024-02-26T02:16:05;16.23;;;15.23;;
63346;SDS011;49472;49.880;8.650;2024-02-26T02:18:30;15.97;;;14.77;;
63346;SDS011;49472;49.880;8.650;2024-02-26T02:20:55;15.10;;;14.30;;
63346;SDS011;49472;49.880;8.650;2024-02-26T02:23:24;15.97;;;15.07;;
63346;SDS011;49472;49.880;8.650;2024-02-26T02:25:49;16.20;;;15.20;;
63346;SDS011;49472;49.880;8.650;2024-02-26T02:28:14;15.73;;;14.83;;
63346;SDS011;49472;49.880;8.650;2024-02-26T02:30:40;15.47;;;14.67;;
63346;SDS011;49472;49.880;8.650;2024-02-26T02:33:05;16.37;;;15.33;;
63346;SDS011;49472;49.880;8.650;2024-02-26T02:35:30;16.23;;;15.03;;
63346;SDS011;49472;49.880;8.650;2024-02-26T02:37:57;16.00;;;15.00;;
63346;SDS011;49472;49.880;8.650;2024-02-26T02:40:22;15.87;;;14.40;;
63346;SDS011;49472;49.880;8.650;2024-02-26T02:42:47;15.50;;;14.70;;
63346;SDS011;49472;49.880;8.650;2024-02-26T02:45:12;15.70;;;14.70;;
63346;SDS011;49472;49.880;8.650;2024-02-26T02:47:37;15.40;;;14.60;;
63346;SDS011;49472;49.880;8.650;2024-02-26T02:50:03;16.17;;;15.03;;
63346;SDS011;49472;49.880;8.650;2024-02-26T02:52:28;16.10;;;14.80;;
63346;SDS011;49472;49.880;8.650;2024-02-26T02:54:53;15.80;;;14.83;;
63346;SDS011;49472;49.880;8.650;2024-02-26T02:57:18;21.27;;;15.60;;
63346;SDS011;49472;49.880;8.650;2024-02-26T02:59:44;15.60;;;14.70;;
63346;SDS011;49472;49.880;8.650;2024-02-26T03:02:09;15.80;;;14.90;;
63346;SDS011;49472;49.880;8.650;2024-02-26T03:04:34;14.87;;;13.73;;
63346;SDS011;49472;49.880;8.650;2024-02-26T03:06:59;15.47;;;14.57;;
63346;SDS011;49472;49.880;8.650;2024-02-26T03:09:25;15.30;;;14.50;;
63346;SDS011;49472;49.880;8.650;2024-02-26T03:11:50;15.10;;;14.30;;
63346;SDS011;49472;49.880;8.650;2024-02-26T03:14:15;15.20;;;14.40;;
63346;SDS011;49472;49.880;8.650;2024-02-26T03:16:41;15.03;;;14.23;;
63346;SDS011;49472;49.880;8.650;2024-02-26T03:19:06;15.20;;;14.20;;
63346;SDS011;49472;49.880;8.650;2024-02-26T03:21:31;14.50;;;13.80;;
63346;SDS011;49472;49.880;8.650;2024-02-26T03:23:57;15.87;;;14.67;;
63346;SDS011;49472;49.880;8.650;2024-02-26T03:26:22;16.17;;;15.10;;
63346;SDS011;49472;49.880;8.650;2024-02-26T03:28:47;14.87;;;14.07;;
63346;SDS011;49472;49.880;8.650;2024-02-26T03:31:13;15.80;;;14.90;;
63346;SDS011;49472;49.880;8.650;2024-02-26T03:33:38;14.90;;;14.10;;
63346;SDS011;49472;49.880;8.650;2024-02-26T03:36:03;15.40;;;14.60;;
63346;SDS011;49472;49.880;8.650;2024-02-26T03:38:29;15.73;;;14.80;;
63346;SDS011;49472;49.880;8.650;2024-02-26T03:40:54;16.10;;;15.20;;
63346;SDS011;49472;49.880;8.650;2024-02-26T03:43:19;15.70;;;14.70;;
63346;SDS011;49472;49.880;8.650;2024-02-26T03:45:44;16.03;;;15.10;;
63346;SDS011;49472;49.880;8.650;2024-02-26T03:48:09;15.50;;;14.60;;
63346;SDS011;49472;49.880;8.650;2024-02-26T03:50:35;16.23;;;15.13;;
63346;SDS011;49472;49.880;8.650;2024-02-26T03:53:00;15.67;;;14.77;;
63346;SDS011;49472;49.880;8.650;2024-02-26T03:55:25;15.80;;;14.90;;
63346;SDS011;49472;49.880;8.650;2024-02-26T03:57:51;15.67;;;14.87;;
63346;SDS011;49472;49.880;8.650;2024-02-26T04:00:16;16.17;;;15.27;;
63346;SDS011;49472;49.880;8.650;2024-02-26T04:02:42;15.90;;;15.00;;
63346;SDS011;49472;49.880;8.650;2024-02-26T04:05:10;16.97;;;15.90;;
63346;SDS011;49472;49.880;8.650;2024-02-26T04:07:35;16.17;;;15.17;;
63346;SDS011;49472;49.880;8.650;2024-02-26T04:10:01;16.03;;;15.13;;
63346;SDS011;49472;49.880;8.650;2024-02-26T04:12:28;17.30;;;16.00;;
63346;SDS011;49472;49.880;8.650;2024-02-26T04:14:53;16.80;;;15.80;;
63346;SDS011;49472;49.880;8.650;2024-02-26T04:17:19;17.10;;;16.10;;
63346;SDS011;49472;49.880;8.650;2024-02-26T04:19:44;15.67;;;14.77;;
63346;SDS011;49472;49.880;8.650;2024-02-26T04:22:09;17.10;;;16.07;;
63346;SDS011;49472;49.880;8.650;2024-02-26T04:24:35;18.63;;;17.20;;
63346;SDS011;49472;49.880;8.650;2024-02-26T04:27:01;18.20;;;17.10;;
63346;SDS011;49472;49.880;8.650;2024-02-26T04:29:26;18.07;;;16.97;;
63346;SDS011;49472;49.880;8.650;2024-02-26T04:31:51;18.90;;;17.70;;
63346;SDS011;49472;49.880;8.650;2024-02-26T04:34:16;19.90;;;18.20;;
63346;SDS011;49472;49.880;8.650;2024-02-26T04:36:41;19.00;;;17.70;;
63346;SDS011;49472;49.880;8.650;2024-02-26T04:39:07;20.07;;;18.50;;
63346;SDS011;49472;49.880;8.650;2024-02-26T04:41:32;18.63;;;17.53;;
63346;SDS011;49472;49.880;8.650;2024-02-26T04:43:57;19.93;;;18.10;;
63346;SDS011;49472;49.880;8.650;2024-02-26T04:46:22;18.30;;;17.00;;
63346;SDS011;49472;49.880;8.650;2024-02-26T04:48:48;17.97;;;16.97;;
63346;SDS011;49472;49.880;8.650;2024-02-26T04:51:13;17.37;;;16.30;;
63346;SDS011;49472;49.880;8.650;2024-02-26T04:53:38;18.30;;;17.10;;
63346;SDS011;49472;49.880;8.650;2024-02-26T04:56:04;18.70;;;17.50;;
63346;SDS011;49472;49.880;8.650;2024-02-26T04:58:29;18.33;;;17.23;;
63346;SDS011;49472;49.880;8.650;2024-02-26T05:00:54;18.60;;;17.50;;
63346;SDS011;49472;49.880;8.650;2024-02-26T05:03:20;19.37;;;17.70;;
63346;SDS011;49472;49.880;8.650;2024-02-26T05:05:45;18.77;;;17.47;;
63346;SDS011;49472;49.880;8.650;2024-02-26T05:08:11;18.60;;;17.30;;
63346;SDS011;49472;49.880;8.650;2024-02-26T05:10:39;18.23;;;17.13;;
63346;SDS011;49472;49.880;8.650;2024-02-26T05:13:08;18.87;;;17.60;;
63346;SDS011;49472;49.880;8.650;2024-02-26T05:15:34;19.23;;;17.53;;
63346;SDS011;49472;49.880;8.650;2024-02-26T05:17:59;19.33;;;17.87;;
63346;SDS011;49472;49.880;8.650;2024-02-26T05:20:25;18.47;;;17.27;;
63346;SDS011;49472;49.880;8.650;2024-02-26T05:22:50;18.63;;;17.30;;
63346;SDS011;49472;49.880;8.650;2024-02-26T05:25:15;19.00;;;17.73;;
63346;SDS011;49472;49.880;8.650;2024-02-26T05:27:41;19.37;;;17.70;;
63346;SDS011;49472;49.880;8.650;2024-02-26T05:30:06;19.43;;;18.10;;
63346;SDS011;49472;49.880;8.650;2024-02-26T05:32:31;18.93;;;17.43;;
63346;SDS011;49472;49.880;8.650;2024-02-26T05:34:57;19.13;;;17.83;;
63346;SDS011;49472;49.880;8.650;2024-02-26T05:37:22;18.23;;;17.10;;
63346;SDS011;49472;49.880;8.650;2024-02-26T05:39:47;19.47;;;17.93;;
63346;SDS011;49472;49.880;8.650;2024-02-26T05:42:12;19.77;;;18.33;;
63346;SDS011;49472;49.880;8.650;2024-02-26T05:44:38;19.87;;;18.40;;
63346;SDS011;49472;49.880;8.650;2024-02-26T05:47:03;19.43;;;18.13;;
63346;SDS011;49472;49.880;8.650;2024-02-26T05:49:28;19.17;;;17.87;;
63346;SDS011;49472;49.880;8.650;2024-02-26T05:51:54;19.77;;;18.27;;
63346;SDS011;49472;49.880;8.650;2024-02-26T05:54:20;20.27;;;18.87;;
63346;SDS011;49472;49.880;8.650;2024-02-26T05:56:45;20.70;;;19.10;;
63346;SDS011;49472;49.880;8.650;2024-02-26T05:59:10;21.67;;;19.93;;
63346;SDS011;49472;49.880;8.650;2024-02-26T06:01:35;21.10;;;19.70;;
63346;SDS011;49472;49.880;8.650;2024-02-26T06:04:00;22.67;;;20.93;;
63346;SDS011;49472;49.880;8.650;2024-02-26T06:06:26;22.13;;;20.33;;
63346;SDS011;49472;49.880;8.650;2024-02-26T06:08:51;22.23;;;20.43;;
63346;SDS011;49472;49.880;8.650;2024-02-26T06:11:16;21.17;;;19.57;;
63346;SDS011;49472;49.880;8.650;2024-02-26T06:13:41;22.17;;;20.50;;
63346;SDS011;49472;49.880;8.650;2024-02-26T06:16:07;21.43;;;19.73;;
63346;SDS011;49472;49.880;8.650;2024-02-26T06:18:33;25.67;;;23.10;;
63346;SDS011;49472;49.880;8.650;2024-02-26T06:20:58;23.60;;;21.70;;
63346;SDS011;49472;49.880;8.650;2024-02-26T06:23:23;23.40;;;21.43;;
63346;SDS011;49472;49.880;8.650;2024-02-26T06:25:48;23.60;;;21.67;;
63346;SDS011;49472;49.880;8.650;2024-02-26T06:28:13;21.60;;;19.93;;
63346;SDS011;49472;49.880;8.650;2024-02-26T06:30:39;22.90;;;21.00;;
63346;SDS011;49472;49.880;8.650;2024-02-26T06:33:05;21.57;;;19.77;;
63346;SDS011;49472;49.880;8.650;2024-02-26T06:35:31;22.13;;;20.13;;
63346;SDS011;49472;49.880;8.650;2024-02-26T06:37:56;22.83;;;20.80;;
63346;SDS011;49472;49.880;8.650;2024-02-26T06:40:21;22.53;;;20.37;;
63346;SDS011;49472;49.880;8.650;2024-02-26T06:42:47;22.53;;;20.73;;
63346;SDS011;49472;49.880;8.650;2024-02-26T06:45:12;20.93;;;19.43;;
63346;SDS011;49472;49.880;8.650;2024-02-26T06:47:37;23.10;;;21.10;;
63346;SDS011;49472;49.880;8.650;2024-02-26T06:50:03;22.13;;;20.20;;
63346;SDS011;49472;49.880;8.650;2024-02-26T06:52:28;22.83;;;20.90;;
63346;SDS011;49472;49.880;8.650;2024-02-26T06:54:53;22.23;;;20.53;;
63346;SDS011;49472;49.880;8.650;2024-02-26T06:57:19;22.30;;;20.43;;
63346;SDS011;49472;49.880;8.650;2024-02-26T06:59:44;23.93;;;20.33;;
63346;SDS011;49472;49.880;8.650;2024-02-26T07:02:12;22.50;;;20.40;;
63346;SDS011;49472;49.880;8.650;2024-02-26T07:04:37;21.43;;;19.60;;
63346;SDS011;49472;49.880;8.650;2024-02-26T07:07:02;21.50;;;19.60;;
63346;SDS011;49472;49.880;8.650;2024-02-26T07:09:27;21.23;;;19.50;;
63346;SDS011;49472;49.880;8.650;2024-02-26T07:11:53;21.70;;;19.70;;
63346;SDS011;49472;49.880;8.650;2024-02-26T07:14:18;22.70;;;20.80;;
63346;SDS011;49472;49.880;8.650;2024-02-26T07:16:43;22.37;;;20.70;;
63346;SDS011;49472;49.880;8.650;2024-02-26T07:19:08;23.80;;;21.90;;
63346;SDS011;49472;49.880;8.650;2024-02-26T07:21:33;22.10;;;20.40;;
63346;SDS011;49472;49.880;8.650;2024-02-26T07:23:59;21.90;;;20.20;;
63346;SDS011;49472;49.880;8.650;2024-02-26T07:26:24;22.03;;;20.33;;
63346;SDS011;49472;49.880;8.650;2024-02-26T07:28:51;22.10;;;20.30;;
63346;SDS011;49472;49.880;8.650;2024-02-26T07:31:17;23.87;;;21.57;;
63346;SDS011;49472;49.880;8.650;2024-02-26T07:33:42;22.80;;;21.00;;
63346;SDS011;49472;49.880;8.650;2024-02-26T07:36:07;23.37;;;21.47;;
63346;SDS011;49472;49.880;8.650;2024-02-26T07:38:32;22.17;;;20.47;;
63346;SDS011;49472;49.880;8.650;2024-02-26T07:40:58;23.53;;;21.37;;
63346;SDS011;49472;49.880;8.650;2024-02-26T07:43:23;22.97;;;21.17;;
63346;SDS011;49472;49.880;8.650;2024-02-26T07:45:48;23.53;;;21.40;;
63346;SDS011;49472;49.880;8.650;2024-02-26T07:48:13;24.00;;;21.93;;
63346;SDS011;49472;49.880;8.650;2024-02-26T07:50:39;24.50;;;22.20;;
63346;SDS011;49472;49.880;8.650;2024-02-26T07:53:05;22.40;;;20.40;;
63346;SDS011;49472;49.880;8.650;2024-02-26T07:55:30;22.17;;;20.30;;
63346;SDS011;49472;49.880;8.650;2024-02-26T07:57:56;24.73;;;22.33;;
63346;SDS011;49472;49.880;8.650;2024-02-26T08:00:21;21.97;;;20.30;;
63346;SDS011;49472;49.880;8.650;2024-02-26T08:02:46;22.63;;;20.37;;
63346;SDS011;49472;49.880;8.650;2024-02-26T08:05:12;23.03;;;21.23;;
63346;SDS011;49472;49.880;8.650;2024-02-26T08:07:37;22.63;;;20.60;;
63346;SDS011;49472;49.880;8.650;2024-02-26T08:10:02;22.37;;;20.57;;
63346;SDS011;49472;49.880;8.650;2024-02-26T08:12:27;22.90;;;20.87;;
63346;SDS011;49472;49.880;8.650;2024-02-26T08:14:53;22.93;;;21.13;;
63346;SDS011;49472;49.880;8.650;2024-02-26T08:17:18;24.00;;;21.93;;
63346;SDS011;49472;49.880;8.650;2024-02-26T08:19:43;23.27;;;20.97;;
63346;SDS011;49472;49.880;8.650;2024-02-26T08:22:08;22.63;;;20.70;;
63346;SDS011;49472;49.880;8.650;2024-02-26T08:24:35;22.67;;;20.97;;
63346;SDS011;49472;49.880;8.650;2024-02-26T08:27:00;23.40;;;21.30;;
63346;SDS011;49472;49.880;8.650;2024-02-26T08:29:26;23.37;;;20.00;;
63346;SDS011;49472;49.880;8.650;2024-02-26T08:31:51;21.23;;;19.63;;
63346;SDS011;49472;49.880;8.650;2024-02-26T08:34:16;22.53;;;20.77;;
63346;SDS011;49472;49.880;8.650;2024-02-26T08:36:41;22.17;;;20.07;;
63346;SDS011;49472;49.880;8.650;2024-02-26T08:39:08;22.77;;;20.87;;
63346;SDS011;49472;49.880;8.650;2024-02-26T08:41:34;23.17;;;21.37;;
63346;SDS011;49472;49.880;8.650;2024-02-26T08:43:59;23.50;;;21.50;;
63346;SDS011;49472;49.880;8.650;2024-02-26T08:46:24;22.10;;;20.30;;
63346;SDS011;49472;49.880;8.650;2024-02-26T08:48:49;25.23;;;22.00;;
63346;SDS011;49472;49.880;8.650;2024-02-26T08:51:14;21.80;;;20.10;;
63346;SDS011;49472;49.880;8.650;2024-02-26T08:53:40;22.57;;;20.73;;
63346;SDS011;49472;49.880;8.650;2024-02-26T08:56:05;22.80;;;20.77;;
63346;SDS011;49472;49.880;8.650;2024-02-26T08:58:31;23.50;;;21.60;;
63346;SDS011;49472;49.880;8.650;2024-02-26T09:00:56;24.13;;;21.90;;
63346;SDS011;49472;49.880;8.650;2024-02-26T09:03:21;23.47;;;21.37;;
63346;SDS011;49472;49.880;8.650;2024-02-26T09:05:47;22.50;;;20.53;;
63346;SDS011;49472;49.880;8.650;2024-02-26T09:08:12;23.53;;;21.53;;
63346;SDS011;49472;49.880;8.650;2024-02-26T09:10:38;22.43;;;20.63;;
63346;SDS011;49472;49.880;8.650;2024-02-26T09:13:03;21.40;;;19.80;;
63346;SDS011;49472;49.880;8.650;2024-02-26T09:15:29;22.37;;;20.40;;
63346;SDS011;49472;49.880;8.650;2024-02-26T09:17:55;23.00;;;21.07;;
63346;SDS011;49472;49.880;8.650;2024-02-26T09:20:21;23.57;;;21.40;;
63346;SDS011;49472;49.880;8.650;2024-02-26T09:22:46;23.13;;;21.17;;
63346;SDS011;49472;49.880;8.650;2024-02-26T09:25:12;21.87;;;20.23;;
63346;SDS011;49472;49.880;8.650;2024-02-26T09:27:37;22.80;;;21.00;;
63346;SDS011;49472;49.880;8.650;2024-02-26T09:30:03;22.30;;;20.50;;
63346;SDS011;49472;49.880;8.650;2024-02-26T09:32:28;22.90;;;20.87;;
63346;SDS011;49472;49.880;8.650;2024-02-26T09:34:53;22.57;;;20.80;;
63346;SDS011;49472;49.880;8.650;2024-02-26T09:37:19;21.77;;;20.17;;
63346;SDS011;49472;49.880;8.650;2024-02-26T09:39:44;22.30;;;20.60;;
63346;SDS011;49472;49.880;8.650;2024-02-26T09:42:09;21.83;;;20.13;;
63346;SDS011;49472;49.880;8.650;2024-02-26T09:44:36;21.93;;;20.20;;
63346;SDS011;49472;49.880;8.650;2024-02-26T09:47:04;22.23;;;20.43;;
63346;SDS011;49472;49.880;8.650;2024-02-26T09:49:30;22.63;;;20.80;;
63346;SDS011;49472;49.880;8.650;2024-02-26T09:51:55;21.67;;;19.80;;
63346;SDS011;49472;49.880;8.650;2024-02-26T09:54:21;22.57;;;20.67;;
63346;SDS011;49472;49.880;8.650;2024-02-26T09:56:46;21.97;;;20.30;;
63346;SDS011;49472;49.880;8.650;2024-02-26T09:59:15;22.60;;;20.70;;
63346;SDS011;49472;49.880;8.650;2024-02-26T10:01:42;22.17;;;20.47;;
63346;SDS011;49472;49.880;8.650;2024-02-26T10:04:07;22.93;;;21.17;;
63346;SDS011;49472;49.880;8.650;2024-02-26T10:06:33;22.63;;;20.93;;
63346;SDS011;49472;49.880;8.650;2024-02-26T10:08:59;21.47;;;19.93;;
63346;SDS011;49472;49.880;8.650;2024-02-26T10:11:25;21.57;;;20.07;;
63346;SDS011;49472;49.880;8.650;2024-02-26T10:13:50;21.83;;;20.03;;
63346;SDS011;49472;49.880;8.650;2024-02-26T10:16:16;21.87;;;20.17;;
63346;SDS011;49472;49.880;8.650;2024-02-26T10:18:51;23.47;;;21.40;;
63346;SDS011;49472;49.880;8.650;2024-02-26T10:21:16;20.83;;;19.33;;
63346;SDS011;49472;49.880;8.650;2024-02-26T10:23:43;22.57;;;20.77;;
63346;SDS011;49472;49.880;8.650;2024-02-26T10:26:08;22.00;;;20.37;;
63346;SDS011;49472;49.880;8.650;2024-02-26T10:28:35;21.57;;;19.97;;
63346;SDS011;49472;49.880;8.650;2024-02-26T10:31:01;21.20;;;19.50;;
63346;SDS011;49472;49.880;8.650;2024-02-26T10:33:26;21.03;;;19.20;;
63346;SDS011;49472;49.880;8.650;2024-02-26T10:35:51;21.90;;;20.20;;
63346;SDS011;49472;49.880;8.650;2024-02-26T10:38:18;21.37;;;19.77;;
63346;SDS011;49472;49.880;8.650;2024-02-26T10:40:45;22.10;;;20.33;;
63346;SDS011;49472;49.880;8.650;2024-02-26T10:43:10;21.00;;;19.27;;
63346;SDS011;49472;49.880;8.650;2024-02-26T10:45:36;22.00;;;20.20;;
63346;SDS011;49472;49.880;8.650;2024-02-26T10:48:02;22.30;;;20.10;;
63346;SDS011;49472;49.880;8.650;2024-02-26T10:50:27;22.33;;;20.50;;
63346;SDS011;49472;49.880;8.650;2024-02-26T10:52:53;20.90;;;19.40;;
63346;SDS011;49472;49.880;8.650;2024-02-26T10:55:20;22.30;;;20.60;;
63346;SDS011;49472;49.880;8.650;2024-02-26T10:57:46;21.87;;;20.17;;
63346;SDS011;49472;49.880;8.650;2024-02-26T11:00:15;20.90;;;19.43;;
63346;SDS011;49472;49.880;8.650;2024-02-26T11:02:40;21.97;;;20.13;;
63346;SDS011;49472;49.880;8.650;2024-02-26T11:05:06;22.17;;;20.47;;
63346;SDS011;49472;49.880;8.650;2024-02-26T11:07:31;22.40;;;20.50;;
63346;SDS011;49472;49.880;8.650;2024-02-26T11:10:00;20.70;;;19.10;;
63346;SDS011;49472;49.880;8.650;2024-02-26T11:12:27;22.33;;;20.67;;
63346;SDS011;49472;49.880;8.650;2024-02-26T11:14:53;22.63;;;20.93;;
63346;SDS011;49472;49.880;8.650;2024-02-26T11:17:21;21.27;;;19.57;;
63346;SDS011;49472;49.880;8.650;2024-02-26T11:19:47;22.10;;;20.37;;
63346;SDS011;49472;49.880;8.650;2024-02-26T11:22:13;22.37;;;20.60;;
63346;SDS011;49472;49.880;8.650;2024-02-26T11:24:38;21.20;;;19.50;;
63346;SDS011;49472;49.880;8.650;2024-02-26T11:27:06;20.97;;;19.47;;
63346;SDS011;49472;49.880;8.650;2024-02-26T11:29:34;22.33;;;20.10;;
63346;SDS011;49472;49.880;8.650;2024-02-26T11:32:02;21.97;;;20.17;;
63346;SDS011;49472;49.880;8.650;2024-02-26T11:34:27;20.03;;;18.73;;
63346;SDS011;49472;49.880;8.650;2024-02-26T11:36:53;20.50;;;19.07;;
63346;SDS011;49472;49.880;8.650;2024-02-26T11:39:19;20.70;;;19.20;;
63346;SDS011;49472;49.880;8.650;2024-02-26T11:41:44;22.07;;;20.23;;
63346;SDS011;49472;49.880;8.650;2024-02-26T11:44:10;21.77;;;20.10;;
63346;SDS011;49472;49.880;8.650;2024-02-26T11:49:29;21.67;;;20.07;;
63346;SDS011;49472;49.880;8.650;2024-02-26T11:51:51;25.77;;;23.37;;
63346;SDS011;49472;49.880;8.650;2024-02-26T11:57:01;21.37;;;19.90;;
63346;SDS011;49472;49.880;8.650;2024-02-26T11:59:39;22.73;;;21.10;;
63346;SDS011;49472;49.880;8.650;2024-02-26T12:02:05;21.47;;;19.97;;
63346;SDS011;49472;49.880;8.650;2024-02-26T12:04:31;22.43;;;20.63;;
63346;SDS011;49472;49.880;8.650;2024-02-26T12:06:58;23.07;;;21.27;;
63346;SDS011;49472;49.880;8.650;2024-02-26T12:09:34;21.37;;;19.87;;
63346;SDS011;49472;49.880;8.650;2024-02-26T12:12:01;22.07;;;20.17;;
63346;SDS011;49472;49.880;8.650;2024-02-26T12:14:26;21.43;;;19.70;;
63346;SDS011;49472;49.880;8.650;2024-02-26T12:16:52;21.27;;;19.47;;
63346;SDS011;49472;49.880;8.650;2024-02-26T12:19:18;21.20;;;19.50;;
63346;SDS011;49472;49.880;8.650;2024-02-26T12:21:43;22.07;;;20.33;;
63346;SDS011;49472;49.880;8.650;2024-02-26T12:24:13;21.07;;;19.57;;
63346;SDS011;49472;49.880;8.650;2024-02-26T12:26:39;20.90;;;19.40;;
63346;SDS011;49472;49.880;8.650;2024-02-26T12:29:04;20.20;;;18.80;;
63346;SDS011;49472;49.880;8.650;2024-02-26T12:31:29;21.70;;;20.07;;
63346;SDS011;49472;49.880;8.650;2024-02-26T12:33:56;22.07;;;20.27;;
63346;SDS011;49472;49.880;8.650;2024-02-26T12:36:21;23.20;;;20.90;;
63346;SDS011;49472;49.880;8.650;2024-02-26T12:38:48;21.43;;;19.57;;
63346;SDS011;49472;49.880;8.650;2024-02-26T12:41:13;21.77;;;20.10;;
63346;SDS011;49472;49.880;8.650;2024-02-26T12:43:39;22.17;;;20.20;;
63346;SDS011;49472;49.880;8.650;2024-02-26T12:46:04;22.23;;;20.47;;
63346;SDS011;49472;49.880;8.650;2024-02-26T12:48:29;21.23;;;19.57;;
63346;SDS011;49472;49.880;8.650;2024-02-26T12:50:55;22.57;;;20.67;;
63346;SDS011;49472;49.880;8.650;2024-02-26T12:53:21;22.53;;;20.83;;
63346;SDS011;49472;49.880;8.650;2024-02-26T12:55:46;21.47;;;19.77;;
63346;SDS011;49472;49.880;8.650;2024-02-26T12:58:11;22.33;;;20.63;;
63346;SDS011;49472;49.880;8.650;2024-02-26T13:00:37;20.30;;;18.80;;
63346;SDS011;49472;49.880;8.650;2024-02-26T13:03:03;21.20;;;19.60;;
63346;SDS011;49472;49.880;8.650;2024-02-26T13:05:28;21.10;;;19.70;;
63346;SDS011;49472;49.880;8.650;2024-02-26T13:07:54;20.60;;;19.17;;
63346;SDS011;49472;49.880;8.650;2024-02-26T13:10:19;22.40;;;20.60;;
63346;SDS011;49472;49.880;8.650;2024-02-26T13:12:48;21.40;;;19.80;;
63346;SDS011;49472;49.880;8.650;2024-02-26T13:15:18;20.87;;;19.50;;
63346;SDS011;49472;49.880;8.650;2024-02-26T13:17:43;21.60;;;19.80;;
63346;SDS011;49472;49.880;8.650;2024-02-26T13:20:09;22.73;;;20.93;;
63346;SDS011;49472;49.880;8.650;2024-02-26T13:22:38;21.70;;;20.10;;
63346;SDS011;49472;49.880;8.650;2024-02-26T13:25:04;21.43;;;19.80;;
63346;SDS011;49472;49.880;8.650;2024-02-26T13:27:29;22.30;;;20.63;;
63346;SDS011;49472;49.880;8.650;2024-02-26T13:32:32;22.17;;;20.30;;
63346;SDS011;49472;49.880;8.650;2024-02-26T13:37:35;20.70;;;19.20;;
63346;SDS011;49472;49.880;8.650;2024-02-26T13:40:00;21.27;;;19.60;;
63346;SDS011;49472;49.880;8.650;2024-02-26T13:42:29;20.70;;;19.00;;
63346;SDS011;49472;49.880;8.650;2024-02-26T13:44:54;21.47;;;19.60;;
63346;SDS011;49472;49.880;8.650;2024-02-26T13:47:22;20.17;;;18.77;;
63346;SDS011;49472;49.880;8.650;2024-02-26T13:49:47;21.00;;;19.47;;
63346;SDS011;49472;49.880;8.650;2024-02-26T13:52:12;21.00;;;19.40;;
63346;SDS011;49472;49.880;8.650;2024-02-26T13:54:37;20.30;;;18.85;;
63346;SDS011;49472;49.880;8.650;2024-02-26T13:57:04;19.97;;;18.03;;
63346;SDS011;49472;49.880;8.650;2024-02-26T13:59:29;20.43;;;19.00;;
63346;SDS011;49472;49.880;8.650;2024-02-26T14:01:54;20.10;;;18.60;;
63346;SDS011;49472;49.880;8.650;2024-02-26T14:04:20;19.03;;;17.73;;
63346;SDS011;49472;49.880;8.650;2024-02-26T14:06:45;20.77;;;19.27;;
63346;SDS011;49472;49.880;8.650;2024-02-26T14:09:10;21.87;;;20.07;;
63346;SDS011;49472;49.880;8.650;2024-02-26T14:11:36;20.97;;;19.23;;
63346;SDS011;49472;49.880;8.650;2024-02-26T14:14:02;21.10;;;19.30;;
63346;SDS011;49472;49.880;8.650;2024-02-26T14:16:27;20.37;;;18.87;;
63346;SDS011;49472;49.880;8.650;2024-02-26T14:18:52;21.33;;;19.83;;
63346;SDS011;49472;49.880;8.650;2024-02-26T14:21:18;21.43;;;19.93;;